createdAt,value
2018-04-11T00:00:31.171Z,97.61
2018-04-11T00:01:31.194Z,97.61
2018-04-11T00:02:31.215Z,97.61
2018-04-11T00:03:31.237Z,97.33
2018-04-11T00:04:31.261Z,97.52
2018-04-11T00:05:31.281Z,97.33
2018-04-11T00:06:31.306Z,97.52
2018-04-11T00:07:31.329Z,97.42
2018-04-11T00:08:31.350Z,97.56
2018-04-11T00:09:31.471Z,97.66
2018-04-11T00:10:31.394Z,97.66
2018-04-11T00:11:31.417Z,97.85
2018-04-11T00:12:31.441Z,98.43
2018-04-11T00:13:31.464Z,98.43
2018-04-11T00:14:31.484Z,98.14
2018-04-11T00:15:31.506Z,98.52
2018-04-11T00:16:31.533Z,98.62
2018-04-11T00:17:31.551Z,98.52
2018-04-11T00:18:31.574Z,98.05
2018-04-11T00:19:31.597Z,98.76
2018-04-11T00:20:31.619Z,98.76
2018-04-11T00:21:31.642Z,99.24
2018-04-11T00:22:31.666Z,99.05
2018-04-11T00:23:31.687Z,99.76
2018-04-11T00:24:31.710Z,99.24
2018-04-11T00:25:31.734Z,98.86
2018-04-11T00:26:31.755Z,98.95
2018-04-11T00:27:31.777Z,99.15
2018-04-11T00:28:31.799Z,98.86
2018-04-11T00:29:31.819Z,98.86
2018-04-11T00:30:31.839Z,98.95
2018-04-11T00:31:31.862Z,98.95
2018-04-11T00:32:31.884Z,99.05
2018-04-11T00:33:31.902Z,99.05
2018-04-11T00:34:31.925Z,98.95
2018-04-11T00:35:31.946Z,98.95
2018-04-11T00:36:31.969Z,99.15
2018-04-11T00:37:31.990Z,99.15
2018-04-11T00:38:32.012Z,99.33
2018-04-11T00:39:32.034Z,99.24
2018-04-11T00:40:32.055Z,99.43
2018-04-11T00:41:32.076Z,99.52
2018-04-11T00:42:32.099Z,99.43
2018-04-11T00:43:32.121Z,99.52
2018-04-11T00:44:32.146Z,99.43
2018-04-11T00:45:32.164Z,99.43
2018-04-11T00:46:32.186Z,99.24
2018-04-11T00:47:32.213Z,99.99
2018-04-11T00:48:32.230Z,99.99
2018-04-11T00:49:32.251Z,99.99
2018-04-11T00:50:32.273Z,99.96
2018-04-11T00:51:32.298Z,99.99
2018-04-11T00:52:32.318Z,99.19
2018-04-11T00:53:32.339Z,99.86
2018-04-11T00:54:32.359Z,99.00
2018-04-11T00:55:32.385Z,99.38
2018-04-11T00:56:32.403Z,99.86
2018-04-11T00:57:32.424Z,99.19
2018-04-11T00:58:32.446Z,99.00
2018-04-11T00:59:32.471Z,99.38
2018-04-11T01:00:32.489Z,99.10
2018-04-11T01:01:32.511Z,99.86
2018-04-11T01:02:32.531Z,99.76
2018-04-11T01:03:32.553Z,99.19
2018-04-11T01:04:32.575Z,99.19
2018-04-11T01:05:32.595Z,99.76
2018-04-11T01:06:32.616Z,99.19
2018-04-11T01:07:32.639Z,99.86
2018-04-11T01:08:32.661Z,99.10
2018-04-11T01:09:32.681Z,99.76
2018-04-11T01:10:32.702Z,99.57
2018-04-11T01:11:32.730Z,99.57
2018-04-11T01:12:32.747Z,99.86
2018-04-11T01:13:32.768Z,99.96
2018-04-11T01:14:32.793Z,99.81
2018-04-11T01:15:32.810Z,99.90
2018-04-11T01:16:32.832Z,99.76
2018-04-11T01:17:32.852Z,99.99
2018-04-11T01:18:32.875Z,99.86
2018-04-11T01:19:32.898Z,99.90
2018-04-11T01:20:32.917Z,99.81
2018-04-11T01:21:32.940Z,99.52
2018-04-11T01:22:32.962Z,99.71
2018-04-11T01:23:32.983Z,99.81
2018-04-11T01:24:33.005Z,99.99
2018-04-11T01:25:33.026Z,99.81
2018-04-11T01:26:33.048Z,99.71
2018-04-11T01:27:33.069Z,99.99
2018-04-11T01:28:33.090Z,99.33
2018-04-11T01:29:33.116Z,99.52
2018-04-11T01:30:33.132Z,99.52
2018-04-11T01:31:33.154Z,99.33
2018-04-11T01:32:33.180Z,99.33
2018-04-11T01:33:33.197Z,99.99
2018-04-11T01:34:33.218Z,99.99
2018-04-11T01:35:33.240Z,99.90
2018-04-11T01:36:33.260Z,99.99
2018-04-11T01:37:33.281Z,99.81
2018-04-11T01:38:33.303Z,99.90
2018-04-11T01:39:33.324Z,99.99
2018-04-11T01:40:33.345Z,99.99
2018-04-11T01:41:33.366Z,99.99
2018-04-11T01:42:33.387Z,99.99
2018-04-11T01:43:33.408Z,99.99
2018-04-11T01:44:33.430Z,99.99
2018-04-11T01:45:33.450Z,99.99
2018-04-11T01:46:33.471Z,99.95
2018-04-11T01:47:33.493Z,99.99
2018-04-11T01:48:33.515Z,99.95
2018-04-11T01:49:33.535Z,99.76
2018-04-11T01:50:33.558Z,99.95
2018-04-11T01:51:33.578Z,99.66
2018-04-11T01:52:33.599Z,99.95
2018-04-11T01:53:33.620Z,99.76
2018-04-11T01:54:33.643Z,99.66
2018-04-11T01:55:33.663Z,99.95
2018-04-11T01:56:33.685Z,99.66
2018-04-11T01:57:33.706Z,99.95
2018-04-11T01:58:33.725Z,99.57
2018-04-11T01:59:33.748Z,99.95
2018-04-11T02:00:33.768Z,99.76
2018-04-11T02:01:33.794Z,99.85
2018-04-11T02:02:33.810Z,99.85
2018-04-11T02:03:33.830Z,99.99
2018-04-11T02:04:33.853Z,99.76
2018-04-11T02:05:33.873Z,99.95
2018-04-11T02:06:33.898Z,99.76
2018-04-11T02:07:33.925Z,99.99
2018-04-11T02:08:33.937Z,99.99
2018-04-11T02:09:33.956Z,99.80
2018-04-11T02:10:33.977Z,99.52
2018-04-11T02:11:33.997Z,99.99
2018-04-11T02:12:34.019Z,99.99
2018-04-11T02:13:34.039Z,99.71
2018-04-11T02:14:34.059Z,99.90
2018-04-11T02:15:34.081Z,99.99
2018-04-11T02:16:34.100Z,99.99
2018-04-11T02:17:34.121Z,99.62
2018-04-11T02:18:34.142Z,99.99
2018-04-11T02:19:34.168Z,99.99
2018-04-11T02:20:34.185Z,99.52
2018-04-11T02:21:34.207Z,99.99
2018-04-11T02:22:34.224Z,99.90
2018-04-11T02:23:34.247Z,99.80
2018-04-11T02:24:34.266Z,99.99
2018-04-11T02:25:34.287Z,99.99
2018-04-11T02:26:34.307Z,99.99
2018-04-11T02:27:34.328Z,99.80
2018-04-11T02:28:34.349Z,99.99
2018-04-11T02:29:34.371Z,99.90
2018-04-11T02:30:34.390Z,99.99
2018-04-11T02:31:34.413Z,99.99
2018-04-11T02:32:34.432Z,99.99
2018-04-11T02:33:34.451Z,99.99
2018-04-11T02:34:34.474Z,99.99
2018-04-11T02:35:34.494Z,99.99
2018-04-11T02:36:34.515Z,99.99
2018-04-11T02:37:34.534Z,99.99
2018-04-11T02:38:34.556Z,99.99
2018-04-11T02:39:34.582Z,99.99
2018-04-11T02:40:34.596Z,99.99
2018-04-11T02:41:34.617Z,99.99
2018-04-11T02:42:34.639Z,99.99
2018-04-11T02:43:34.658Z,99.99
2018-04-11T02:44:34.679Z,99.99
2018-04-11T02:45:34.701Z,99.99
2018-04-11T02:46:34.723Z,99.99
2018-04-11T02:47:34.739Z,99.99
2018-04-11T02:48:34.759Z,99.99
2018-04-11T02:49:34.779Z,99.99
2018-04-11T02:50:34.801Z,99.99
2018-04-11T02:51:34.821Z,99.99
2018-04-11T02:52:34.841Z,99.99
2018-04-11T02:53:34.860Z,99.99
2018-04-11T02:54:34.880Z,99.99
2018-04-11T02:55:34.900Z,99.99
2018-04-11T02:56:34.921Z,99.99
2018-04-11T02:57:34.941Z,99.99
2018-04-11T02:58:34.962Z,99.99
2018-04-11T02:59:34.982Z,99.99
2018-04-11T03:00:35.003Z,99.99
2018-04-11T03:01:35.022Z,99.99
2018-04-11T03:02:35.042Z,99.99
2018-04-11T03:03:35.061Z,99.99
2018-04-11T03:04:35.089Z,99.99
2018-04-11T03:05:35.103Z,99.99
2018-04-11T03:06:35.124Z,99.99
2018-04-11T03:07:35.143Z,99.99
2018-04-11T03:08:35.164Z,99.99
2018-04-11T03:09:35.183Z,99.99
2018-04-11T03:10:35.205Z,99.99
2018-04-11T03:11:35.225Z,99.99
2018-04-11T03:12:35.245Z,99.99
2018-04-11T03:13:35.264Z,99.99
2018-04-11T03:14:35.284Z,99.99
2018-04-11T03:15:35.308Z,99.99
2018-04-11T03:16:35.328Z,99.99
2018-04-11T03:17:35.343Z,99.99
2018-04-11T03:18:35.366Z,99.99
2018-04-11T03:19:35.385Z,99.99
2018-04-11T03:20:35.406Z,99.99
2018-04-11T03:21:35.423Z,99.99
2018-04-11T03:22:35.441Z,99.99
2018-04-11T03:23:35.463Z,99.99
2018-04-11T03:24:35.483Z,99.99
2018-04-11T03:25:35.508Z,99.99
2018-04-11T03:26:35.522Z,99.99
2018-04-11T03:27:35.542Z,99.99
2018-04-11T03:28:35.561Z,99.99
2018-04-11T03:29:35.581Z,99.99
2018-04-11T03:30:35.601Z,99.99
2018-04-11T03:31:35.621Z,99.99
2018-04-11T03:32:35.640Z,99.99
2018-04-11T03:33:35.660Z,99.99
2018-04-11T03:34:35.682Z,99.99
2018-04-11T03:35:35.700Z,99.99
2018-04-11T03:36:35.720Z,99.99
2018-04-11T03:37:35.738Z,99.99
2018-04-11T03:38:35.759Z,99.99
2018-04-11T03:39:35.779Z,99.99
2018-04-11T03:40:35.801Z,99.99
2018-04-11T03:41:35.818Z,99.99
2018-04-11T03:42:35.838Z,99.99
2018-04-11T03:43:35.859Z,99.99
2018-04-11T03:44:35.877Z,99.99
2018-04-11T03:45:35.897Z,99.99
2018-04-11T03:46:35.918Z,99.99
2018-04-11T03:47:35.937Z,99.99
2018-04-11T03:48:35.958Z,99.99
2018-04-11T03:49:35.976Z,99.99
2018-04-11T03:50:35.997Z,99.99
2018-04-11T03:51:36.016Z,99.99
2018-04-11T03:52:36.037Z,99.99
2018-04-11T03:53:36.055Z,99.99
2018-04-11T03:54:36.075Z,99.99
2018-04-11T03:55:36.095Z,99.99
2018-04-11T03:56:36.114Z,99.99
2018-04-11T03:57:36.133Z,99.99
2018-04-11T03:58:36.152Z,99.99
2018-04-11T03:59:36.174Z,99.99
2018-04-11T04:00:36.193Z,99.99
2018-04-11T04:01:36.271Z,99.99
2018-04-11T04:02:36.230Z,99.99
2018-04-11T04:03:36.252Z,99.99
2018-04-11T04:04:36.270Z,99.99
2018-04-11T04:05:36.289Z,99.99
2018-04-11T04:06:36.309Z,99.99
2018-04-11T04:07:36.376Z,99.99
2018-04-11T04:08:36.348Z,99.99
2018-04-11T04:09:36.367Z,99.99
2018-04-11T04:10:36.388Z,99.99
2018-04-11T04:11:36.407Z,99.99
2018-04-11T04:12:36.431Z,99.99
2018-04-11T04:13:36.445Z,99.99
2018-04-11T04:14:36.465Z,99.99
2018-04-11T04:15:36.488Z,99.99
2018-04-11T04:16:36.507Z,99.99
2018-04-11T04:17:36.524Z,99.99
2018-04-11T04:18:36.543Z,99.99
2018-04-11T04:19:36.563Z,99.99
2018-04-11T04:20:36.584Z,99.99
2018-04-11T04:21:36.604Z,99.99
2018-04-11T04:22:36.621Z,99.99
2018-04-11T04:23:36.641Z,99.99
2018-04-11T04:24:36.661Z,99.99
2018-04-11T04:25:36.680Z,99.99
2018-04-11T04:26:36.699Z,99.99
2018-04-11T04:27:36.719Z,99.99
2018-04-11T04:28:36.738Z,99.99
2018-04-11T04:29:36.756Z,99.99
2018-04-11T04:30:36.775Z,99.99
2018-04-11T04:31:36.795Z,99.99
2018-04-11T04:32:36.815Z,99.99
2018-04-11T04:33:36.833Z,99.99
2018-04-11T04:34:36.853Z,99.99
2018-04-11T04:35:36.871Z,99.99
2018-04-11T04:36:36.895Z,99.99
2018-04-11T04:37:36.910Z,99.99
2018-04-11T04:38:36.930Z,99.99
2018-04-11T04:39:36.949Z,99.99
2018-04-11T04:40:36.969Z,99.99
2018-04-11T04:41:36.986Z,99.99
2018-04-11T04:42:37.007Z,99.99
2018-04-11T04:43:37.112Z,99.99
2018-04-11T04:44:37.047Z,99.99
2018-04-11T04:45:37.063Z,99.99
2018-04-11T04:46:37.085Z,99.99
2018-04-11T04:47:37.103Z,99.99
2018-04-11T04:48:37.125Z,99.99
2018-04-11T04:49:37.142Z,99.99
2018-04-11T04:50:37.172Z,99.99
2018-04-11T04:51:37.181Z,99.99
2018-04-11T04:52:37.203Z,99.99
2018-04-11T04:53:37.219Z,99.99
2018-04-11T04:54:37.239Z,99.99
2018-04-11T04:55:37.259Z,99.99
2018-04-11T04:56:37.279Z,99.99
2018-04-11T04:57:37.296Z,99.99
2018-04-11T04:58:37.316Z,99.99
2018-04-11T04:59:37.336Z,99.99
2018-04-11T05:00:37.355Z,99.99
2018-04-11T05:01:37.373Z,99.99
2018-04-11T05:02:37.392Z,99.99
2018-04-11T05:03:37.411Z,99.99
2018-04-11T05:04:37.435Z,99.99
2018-04-11T05:05:37.450Z,99.99
2018-04-11T05:06:37.469Z,99.99
2018-04-11T05:07:37.520Z,99.99
2018-04-11T05:08:37.508Z,99.99
2018-04-11T05:09:37.526Z,99.99
2018-04-11T05:10:37.546Z,99.99
2018-04-11T05:11:37.565Z,99.99
2018-04-11T05:12:37.583Z,99.99
2018-04-11T05:13:37.603Z,99.99
2018-04-11T05:14:37.622Z,99.99
2018-04-11T05:15:37.641Z,99.99
2018-04-11T05:16:37.660Z,99.99
2018-04-11T05:17:37.679Z,99.99
2018-04-11T05:18:37.699Z,99.99
2018-04-11T05:19:37.720Z,99.99
2018-04-11T05:20:37.737Z,99.99
2018-04-11T05:21:37.756Z,99.99
2018-04-11T05:22:37.780Z,99.99
2018-04-11T05:23:37.794Z,99.99
2018-04-11T05:24:37.814Z,99.99
2018-04-11T05:25:37.832Z,99.99
2018-04-11T05:26:37.852Z,99.99
2018-04-11T05:27:37.870Z,99.99
2018-04-11T05:28:37.891Z,99.99
2018-04-11T05:29:37.910Z,99.99
2018-04-11T05:30:37.929Z,99.99
2018-04-11T05:31:37.948Z,99.99
2018-04-11T05:32:37.968Z,99.99
2018-04-11T05:33:37.986Z,99.99
2018-04-11T05:34:38.006Z,99.99
2018-04-11T05:35:38.025Z,99.99
2018-04-11T05:36:38.045Z,99.99
2018-04-11T05:37:38.065Z,99.99
2018-04-11T05:38:38.087Z,99.99
2018-04-11T05:39:38.102Z,99.99
2018-04-11T05:40:38.122Z,99.99
2018-04-11T05:41:38.140Z,99.99
2018-04-11T05:42:38.160Z,99.99
2018-04-11T05:43:38.179Z,99.99
2018-04-11T05:44:38.199Z,99.99
2018-04-11T05:45:38.218Z,99.99
2018-04-11T05:46:38.237Z,99.99
2018-04-11T05:47:38.256Z,99.99
2018-04-11T05:48:38.275Z,99.99
2018-04-11T05:49:38.296Z,99.99
2018-04-11T05:50:38.315Z,99.99
2018-04-11T05:51:38.334Z,99.99
2018-04-11T05:52:38.354Z,99.99
2018-04-11T05:53:38.373Z,99.99
2018-04-11T05:54:38.392Z,99.99
2018-04-11T05:55:38.414Z,99.99
2018-04-11T05:56:38.432Z,99.99
2018-04-11T05:57:38.453Z,99.99
2018-04-11T05:58:38.470Z,99.99
2018-04-11T05:59:38.489Z,99.99
2018-04-11T06:00:38.509Z,99.99
2018-04-11T06:01:38.528Z,99.99
2018-04-11T06:02:38.547Z,99.99
2018-04-11T06:03:38.567Z,99.99
2018-04-11T06:04:38.586Z,99.99
2018-04-11T06:05:38.606Z,99.99
2018-04-11T06:06:38.625Z,99.99
2018-04-11T06:07:38.645Z,99.99
2018-04-11T06:08:38.664Z,99.99
2018-04-11T06:09:38.682Z,99.99
2018-04-11T06:10:38.702Z,99.99
2018-04-11T06:11:38.728Z,99.99
2018-04-11T06:12:38.741Z,99.99
2018-04-11T06:13:38.760Z,99.99
2018-04-11T06:14:38.779Z,99.99
2018-04-11T06:15:38.798Z,99.99
2018-04-11T06:16:38.818Z,99.99
2018-04-11T06:17:38.837Z,99.99
2018-04-11T06:18:38.857Z,99.99
2018-04-11T06:19:38.875Z,99.99
2018-04-11T06:20:38.896Z,99.99
2018-04-11T06:21:38.918Z,99.99
2018-04-11T06:22:38.941Z,99.99
2018-04-11T06:23:38.954Z,99.99
2018-04-11T06:24:38.973Z,99.99
2018-04-11T06:25:38.991Z,99.99
2018-04-11T06:26:39.011Z,99.99
2018-04-11T06:27:39.032Z,99.99
2018-04-11T06:28:39.052Z,99.99
2018-04-11T06:29:39.071Z,99.99
2018-04-11T06:30:39.090Z,99.99
2018-04-11T06:31:39.110Z,99.99
2018-04-11T06:32:39.129Z,99.99
2018-04-11T06:33:39.148Z,99.99
2018-04-11T06:34:39.168Z,99.99
2018-04-11T06:35:39.188Z,99.99
2018-04-11T06:36:39.208Z,99.99
2018-04-11T06:37:39.233Z,99.99
2018-04-11T06:38:39.247Z,99.99
2018-04-11T06:39:39.267Z,99.99
2018-04-11T06:40:39.287Z,99.99
2018-04-11T06:41:39.307Z,99.99
2018-04-11T06:42:39.327Z,99.99
2018-04-11T06:43:39.347Z,99.99
2018-04-11T06:44:39.367Z,99.99
2018-04-11T06:45:39.386Z,99.99
2018-04-11T06:46:39.406Z,99.99
2018-04-11T06:47:39.426Z,99.99
2018-04-11T06:48:39.446Z,99.99
2018-04-11T06:49:39.469Z,99.99
2018-04-11T06:50:39.485Z,99.99
2018-04-11T06:51:39.505Z,99.99
2018-04-11T06:52:39.526Z,99.99
2018-04-11T06:53:39.545Z,99.99
2018-04-11T06:54:39.568Z,99.99
2018-04-11T06:55:39.585Z,99.99
2018-04-11T06:56:39.605Z,99.99
2018-04-11T06:57:39.625Z,99.99
2018-04-11T06:58:39.645Z,99.99
2018-04-11T06:59:39.665Z,99.99
2018-04-11T07:00:39.686Z,99.99
2018-04-11T07:01:39.706Z,99.99
2018-04-11T07:02:39.726Z,99.99
2018-04-11T07:03:39.747Z,99.99
2018-04-11T07:04:39.766Z,99.99
2018-04-11T07:05:39.833Z,99.99
2018-04-11T07:06:39.806Z,99.99
2018-04-11T07:07:39.827Z,99.99
2018-04-11T07:08:39.847Z,99.99
2018-04-11T07:09:39.871Z,99.99
2018-04-11T07:10:39.888Z,99.99
2018-04-11T07:11:39.908Z,99.99
2018-04-11T07:12:39.927Z,99.99
2018-04-11T07:13:39.947Z,99.99
2018-04-11T07:14:39.967Z,99.99
2018-04-11T07:15:39.988Z,99.99
2018-04-11T07:16:40.008Z,99.99
2018-04-11T07:17:40.028Z,99.99
2018-04-11T07:18:40.048Z,99.99
2018-04-11T07:19:40.068Z,99.99
2018-04-11T07:20:40.089Z,99.99
2018-04-11T07:21:40.109Z,99.99
2018-04-11T07:22:40.129Z,99.99
2018-04-11T07:23:40.149Z,99.99
2018-04-11T07:24:40.171Z,99.99
2018-04-11T07:25:40.195Z,99.99
2018-04-11T07:26:40.210Z,99.99
2018-04-11T07:27:40.230Z,99.99
2018-04-11T07:28:40.251Z,99.99
2018-04-11T07:29:40.271Z,99.99
2018-04-11T07:30:40.291Z,99.99
2018-04-11T07:31:40.311Z,99.99
2018-04-11T07:32:40.433Z,99.99
2018-04-11T07:33:40.352Z,99.99
2018-04-11T07:34:40.373Z,99.99
2018-04-11T07:35:40.396Z,99.99
2018-04-11T07:36:40.414Z,99.99
2018-04-11T07:37:40.434Z,99.99
2018-04-11T07:38:40.455Z,99.99
2018-04-11T07:39:40.476Z,99.99
2018-04-11T07:40:40.496Z,99.99
2018-04-11T07:41:40.517Z,99.99
2018-04-11T07:42:40.538Z,99.99
2018-04-11T07:43:40.557Z,99.99
2018-04-11T07:44:40.579Z,99.99
2018-04-11T07:45:40.607Z,99.99
2018-04-11T07:46:40.620Z,99.99
2018-04-11T07:47:40.640Z,99.99
2018-04-11T07:48:40.661Z,99.99
2018-04-11T07:49:40.681Z,99.99
2018-04-11T07:50:40.702Z,99.99
2018-04-11T07:51:40.723Z,99.99
2018-04-11T07:52:40.745Z,99.99
2018-04-11T07:53:40.765Z,99.99
2018-04-11T07:54:40.786Z,99.99
2018-04-11T07:55:40.807Z,99.99
2018-04-11T07:56:40.827Z,99.99
2018-04-11T07:57:40.847Z,99.99
2018-04-11T07:58:40.868Z,99.99
2018-04-11T07:59:40.890Z,99.99
2018-04-11T08:00:40.910Z,99.99
2018-04-11T08:01:40.930Z,99.99
2018-04-11T08:02:40.952Z,99.99
2018-04-11T08:03:41.003Z,99.99
2018-04-11T08:04:40.994Z,99.99
2018-04-11T08:05:41.014Z,99.99
2018-04-11T08:06:41.035Z,99.99
2018-04-11T08:07:41.057Z,99.99
2018-04-11T08:08:41.079Z,99.99
2018-04-11T08:09:41.098Z,99.99
2018-04-11T08:10:41.119Z,99.99
2018-04-11T08:11:41.139Z,99.99
2018-04-11T08:12:41.162Z,99.90
2018-04-11T08:13:41.181Z,99.90
2018-04-11T08:14:41.208Z,99.90
2018-04-11T08:15:41.224Z,99.99
2018-04-11T08:16:41.247Z,99.99
2018-04-11T08:17:41.265Z,99.99
2018-04-11T08:18:41.288Z,99.99
2018-04-11T08:19:41.310Z,99.99
2018-04-11T08:20:41.334Z,99.99
2018-04-11T08:21:41.351Z,99.76
2018-04-11T08:22:41.372Z,99.10
2018-04-11T08:23:41.394Z,98.71
2018-04-11T08:24:41.416Z,99.38
2018-04-11T08:25:41.436Z,99.10
2018-04-11T08:26:41.458Z,98.81
2018-04-11T08:27:41.480Z,98.57
2018-04-11T08:28:41.502Z,98.47
2018-04-11T08:29:41.522Z,98.76
2018-04-11T08:30:41.544Z,98.66
2018-04-11T08:31:41.566Z,97.90
2018-04-11T08:32:41.592Z,97.71
2018-04-11T08:33:41.613Z,98.14
2018-04-11T08:34:41.631Z,97.90
2018-04-11T08:35:41.653Z,98.19
2018-04-11T08:36:41.675Z,98.38
2018-04-11T08:37:41.697Z,98.28
2018-04-11T08:38:41.717Z,98.28
2018-04-11T08:39:41.739Z,98.57
2018-04-11T08:40:41.762Z,98.76
2018-04-11T08:41:41.786Z,97.90
2018-04-11T08:42:41.805Z,98.19
2018-04-11T08:43:41.931Z,98.47
2018-04-11T08:44:41.851Z,98.38
2018-04-11T08:45:41.871Z,97.71
2018-04-11T08:46:41.896Z,97.38
2018-04-11T08:47:41.913Z,97.09
2018-04-11T08:48:41.937Z,96.89
2018-04-11T08:49:41.958Z,96.80
2018-04-11T08:50:41.980Z,96.03
2018-04-11T08:51:42.006Z,95.70
2018-04-11T08:52:42.027Z,96.32
2018-04-11T08:53:42.046Z,96.89
2018-04-11T08:54:42.068Z,97.04
2018-04-11T08:55:42.095Z,97.85
2018-04-11T08:56:42.113Z,96.89
2018-04-11T08:57:42.134Z,97.09
2018-04-11T08:58:42.157Z,97.09
2018-04-11T08:59:42.183Z,97.13
2018-04-11T09:00:42.202Z,97.38
2018-04-11T09:01:42.225Z,97.18
2018-04-11T09:02:42.246Z,96.80
2018-04-11T09:03:42.268Z,96.47
2018-04-11T09:04:42.291Z,97.80
2018-04-11T09:05:42.312Z,98.19
2018-04-11T09:06:42.335Z,98.05
2018-04-11T09:07:42.365Z,97.18
2018-04-11T09:08:42.380Z,97.18
2018-04-11T09:09:42.403Z,96.51
2018-04-11T09:10:42.426Z,96.80
2018-04-11T09:11:42.447Z,96.75
2018-04-11T09:12:42.469Z,95.56
2018-04-11T09:13:42.491Z,96.18
2018-04-11T09:14:42.513Z,95.41
2018-04-11T09:15:42.535Z,95.98
2018-04-11T09:16:42.558Z,96.18
2018-04-11T09:17:42.588Z,96.47
2018-04-11T09:18:42.603Z,95.70
2018-04-11T09:19:42.626Z,94.98
2018-04-11T09:20:42.681Z,94.50
2018-04-11T09:21:42.670Z,94.02
2018-04-11T09:22:42.692Z,94.07
2018-04-11T09:23:42.716Z,94.64
2018-04-11T09:24:42.738Z,94.35
2018-04-11T09:25:42.760Z,95.03
2018-04-11T09:26:42.783Z,95.31
2018-04-11T09:27:42.806Z,94.21
2018-04-11T09:28:42.833Z,93.88
2018-04-11T09:29:42.851Z,94.31
2018-04-11T09:30:42.874Z,93.63
2018-04-11T09:31:42.913Z,94.59
2018-04-11T09:32:42.926Z,94.59
2018-04-11T09:33:42.946Z,93.59
2018-04-11T09:34:42.966Z,92.10
2018-04-11T09:35:42.988Z,92.49
2018-04-11T09:36:43.087Z,93.26
2018-04-11T09:37:43.035Z,93.83
2018-04-11T09:38:43.145Z,92.24
2018-04-11T09:39:43.082Z,92.24
2018-04-11T09:40:43.105Z,93.73
2018-04-11T09:41:43.127Z,93.54
2018-04-11T09:42:43.153Z,93.16
2018-04-11T09:43:43.173Z,92.54
2018-04-11T09:44:43.197Z,92.24
2018-04-11T09:45:43.218Z,91.48
2018-04-11T09:46:43.243Z,92.20
2018-04-11T09:47:43.270Z,93.26
2018-04-11T09:48:43.289Z,92.97
2018-04-11T09:49:43.311Z,93.01
2018-04-11T09:50:43.334Z,93.01
2018-04-11T09:51:43.359Z,92.91
2018-04-11T09:52:43.381Z,92.15
2018-04-11T09:53:43.407Z,92.05
2018-04-11T09:54:43.427Z,92.34
2018-04-11T09:55:43.451Z,92.15
2018-04-11T09:56:43.475Z,92.24
2018-04-11T09:57:43.499Z,91.24
2018-04-11T09:58:43.520Z,91.42
2018-04-11T09:59:43.552Z,91.24
2018-04-11T10:00:43.567Z,91.19
2018-04-11T10:01:43.590Z,91.86
2018-04-11T10:02:43.613Z,91.67
2018-04-11T10:03:43.637Z,92.44
2018-04-11T10:04:43.660Z,92.48
2018-04-11T10:05:43.684Z,91.33
2018-04-11T10:06:43.707Z,90.18
2018-04-11T10:07:43.738Z,89.07
2018-04-11T10:08:43.753Z,88.59
2018-04-11T10:09:43.780Z,88.59
2018-04-11T10:10:43.800Z,88.55
2018-04-11T10:11:43.823Z,88.84
2018-04-11T10:12:43.888Z,90.28
2018-04-11T10:13:43.869Z,91.52
2018-04-11T10:14:43.894Z,90.95
2018-04-11T10:15:43.917Z,90.08
2018-04-11T10:16:43.944Z,89.03
2018-04-11T10:17:43.963Z,88.49
2018-04-11T10:18:43.986Z,88.07
2018-04-11T10:19:44.010Z,89.99
2018-04-11T10:20:44.035Z,90.28
2018-04-11T10:21:44.057Z,89.70
2018-04-11T10:22:44.081Z,89.99
2018-04-11T10:23:44.104Z,88.40
2018-04-11T10:24:44.142Z,87.54
2018-04-11T10:25:44.151Z,88.21
2018-04-11T10:26:44.176Z,88.40
2018-04-11T10:27:44.199Z,87.63
2018-04-11T10:28:44.229Z,87.54
2018-04-11T10:29:44.246Z,87.73
2018-04-11T10:30:44.270Z,88.55
2018-04-11T10:31:44.294Z,88.31
2018-04-11T10:32:44.323Z,87.35
2018-04-11T10:33:44.370Z,87.54
2018-04-11T10:34:44.365Z,87.44
2018-04-11T10:35:44.388Z,87.82
2018-04-11T10:36:44.413Z,87.63
2018-04-11T10:37:44.436Z,87.54
2018-04-11T10:38:44.459Z,87.73
2018-04-11T10:39:44.537Z,87.44
2018-04-11T10:40:44.507Z,87.54
2018-04-11T10:41:44.534Z,87.54
2018-04-11T10:42:44.555Z,87.35
2018-04-11T10:43:44.581Z,87.54
2018-04-11T10:44:44.603Z,87.15
2018-04-11T10:45:44.627Z,87.44
2018-04-11T10:46:44.651Z,87.63
2018-04-11T10:47:44.674Z,87.35
2018-04-11T10:48:44.698Z,88.31
2018-04-11T10:49:44.721Z,87.73
2018-04-11T10:50:44.746Z,87.82
2018-04-11T10:51:44.770Z,87.15
2018-04-11T10:52:44.838Z,87.05
2018-04-11T10:53:44.818Z,86.24
2018-04-11T10:54:44.841Z,86.24
2018-04-11T10:55:44.865Z,85.28
2018-04-11T10:56:44.889Z,85.28
2018-04-11T10:57:44.927Z,85.37
2018-04-11T10:58:44.941Z,85.47
2018-04-11T10:59:44.963Z,85.08
2018-04-11T11:00:45.027Z,86.24
2018-04-11T11:01:45.009Z,86.43
2018-04-11T11:02:45.034Z,86.38
2018-04-11T11:03:45.058Z,87.05
2018-04-11T11:04:45.082Z,88.02
2018-04-11T11:05:45.106Z,88.65
2018-04-11T11:06:45.129Z,89.70
2018-04-11T11:07:45.154Z,89.70
2018-04-11T11:08:45.178Z,90.28
2018-04-11T11:09:45.321Z,90.37
2018-04-11T11:10:45.227Z,90.47
2018-04-11T11:11:45.250Z,90.47
2018-04-11T11:12:45.274Z,90.08
2018-04-11T11:13:45.297Z,89.65
2018-04-11T11:14:45.324Z,88.21
2018-04-11T11:15:45.345Z,88.31
2018-04-11T11:16:45.368Z,88.02
2018-04-11T11:17:45.492Z,89.17
2018-04-11T11:18:45.417Z,89.36
2018-04-11T11:19:45.440Z,89.17
2018-04-11T11:20:45.464Z,88.73
2018-04-11T11:21:45.487Z,88.16
2018-04-11T11:22:45.516Z,87.77
2018-04-11T11:23:45.537Z,87.82
2018-04-11T11:24:45.559Z,88.49
2018-04-11T11:25:45.582Z,88.31
2018-04-11T11:26:45.607Z,88.21
2018-04-11T11:27:45.631Z,88.21
2018-04-11T11:28:45.656Z,88.35
2018-04-11T11:29:45.678Z,87.58
2018-04-11T11:30:45.702Z,86.76
2018-04-11T11:31:45.728Z,86.09
2018-04-11T11:32:45.754Z,84.55
2018-04-11T11:33:45.778Z,84.01
2018-04-11T11:34:45.799Z,82.67
2018-04-11T11:35:45.823Z,81.38
2018-04-11T11:36:45.848Z,81.99
2018-04-11T11:37:45.871Z,82.29
2018-04-11T11:38:45.933Z,81.32
2018-04-11T11:39:45.920Z,81.23
2018-04-11T11:40:45.947Z,80.02
2018-04-11T11:41:46.017Z,79.35
2018-04-11T11:42:45.995Z,79.30
2018-04-11T11:43:46.018Z,79.40
2018-04-11T11:44:46.058Z,80.27
2018-04-11T11:45:46.067Z,80.65
2018-04-11T11:46:46.094Z,81.04
2018-04-11T11:47:46.118Z,81.32
2018-04-11T11:48:46.142Z,81.23
2018-04-11T11:49:46.169Z,80.46
2018-04-11T11:50:46.192Z,81.28
2018-04-11T11:51:46.216Z,81.57
2018-04-11T11:52:46.241Z,81.48
2018-04-11T11:53:46.266Z,82.15
2018-04-11T11:54:46.292Z,82.87
2018-04-11T11:55:46.315Z,83.26
2018-04-11T11:56:46.340Z,83.93
2018-04-11T11:57:46.364Z,84.22
2018-04-11T11:58:46.394Z,85.18
2018-04-11T11:59:46.414Z,85.95
2018-04-11T12:00:46.438Z,86.81
2018-04-11T12:01:46.463Z,87.87
2018-04-11T12:02:46.488Z,88.02
2018-04-11T12:03:46.515Z,88.98
2018-04-11T12:04:46.539Z,89.22
2018-04-11T12:05:46.561Z,89.31
2018-04-11T12:06:46.584Z,88.11
2018-04-11T12:07:46.610Z,88.79
2018-04-11T12:08:46.635Z,88.88
2018-04-11T12:09:46.660Z,89.17
2018-04-11T12:10:46.682Z,89.02
2018-04-11T12:11:46.707Z,87.87
2018-04-11T12:12:46.732Z,88.16
2018-04-11T12:13:46.955Z,87.49
2018-04-11T12:14:46.780Z,87.49
2018-04-11T12:15:46.803Z,87.58
2018-04-11T12:16:46.828Z,87.19
2018-04-11T12:17:46.855Z,87.39
2018-04-11T12:18:46.875Z,87.10
2018-04-11T12:19:46.900Z,87.96
2018-04-11T12:20:46.925Z,88.06
2018-04-11T12:21:46.949Z,87.77
2018-04-11T12:22:46.973Z,87.87
2018-04-11T12:23:46.997Z,88.02
2018-04-11T12:24:47.023Z,89.07
2018-04-11T12:25:47.046Z,89.65
2018-04-11T12:26:47.070Z,90.03
2018-04-11T12:27:47.094Z,90.61
2018-04-11T12:28:47.120Z,90.80
2018-04-11T12:29:47.145Z,91.52
2018-04-11T12:30:47.168Z,92.29
2018-04-11T12:31:47.197Z,93.25
2018-04-11T12:32:47.215Z,93.54
2018-04-11T12:33:47.240Z,94.02
2018-04-11T12:34:47.273Z,94.21
2018-04-11T12:35:47.286Z,94.12
2018-04-11T12:36:47.311Z,93.63
2018-04-11T12:37:47.337Z,93.73
2018-04-11T12:38:47.362Z,94.31
2018-04-11T12:39:47.382Z,93.97
2018-04-11T12:40:47.406Z,93.44
2018-04-11T12:41:47.429Z,94.02
2018-04-11T12:42:47.454Z,93.54
2018-04-11T12:43:47.477Z,93.63
2018-04-11T12:44:47.502Z,93.30
2018-04-11T12:45:47.525Z,93.01
2018-04-11T12:46:47.551Z,91.86
2018-04-11T12:47:47.572Z,90.32
2018-04-11T12:48:47.596Z,90.17
2018-04-11T12:49:47.619Z,89.50
2018-04-11T12:50:47.643Z,89.89
2018-04-11T12:51:47.667Z,89.40
2018-04-11T12:52:47.695Z,88.68